createdAt,value
2019-03-19T00:00:14.807Z,3.19
2019-03-19T00:02:43.187Z,3.16
2019-03-19T00:05:11.569Z,3.15
2019-03-19T00:07:39.994Z,3.13
2019-03-19T00:10:09.643Z,3.09
2019-03-19T00:12:38.030Z,3.05
2019-03-19T00:15:08.502Z,3.02
2019-03-19T00:17:36.931Z,3.00
2019-03-19T00:20:13.483Z,2.96
2019-03-19T00:22:41.894Z,2.90
2019-03-19T00:25:10.433Z,2.87
2019-03-19T00:27:38.829Z,2.85
2019-03-19T00:30:16.232Z,2.83
2019-03-19T00:32:44.645Z,2.80
2019-03-19T00:35:13.711Z,2.78
2019-03-19T00:37:42.190Z,2.76
2019-03-19T00:40:15.469Z,2.75
2019-03-19T00:42:43.897Z,2.71
2019-03-19T00:45:13.457Z,2.70
2019-03-19T00:47:41.847Z,2.69
2019-03-19T00:50:13.023Z,2.68
2019-03-19T00:52:41.452Z,2.69
2019-03-19T00:55:10.065Z,2.68
2019-03-19T00:57:38.414Z,2.66
2019-03-19T01:00:15.922Z,2.53
2019-03-19T01:02:44.337Z,2.62
2019-03-19T01:05:12.842Z,2.58
2019-03-19T01:07:41.353Z,2.53
2019-03-19T01:10:11.887Z,2.51
2019-03-19T01:12:40.330Z,2.48
2019-03-19T01:15:10.863Z,2.42
2019-03-19T01:17:39.258Z,2.37
2019-03-19T01:20:10.738Z,2.32
2019-03-19T01:22:39.144Z,2.30
2019-03-19T01:25:09.362Z,2.25
2019-03-19T01:27:37.846Z,2.20
2019-03-19T01:30:11.653Z,2.16
2019-03-19T01:32:40.089Z,2.15
2019-03-19T01:35:08.586Z,2.13
2019-03-19T01:37:36.981Z,2.08
2019-03-19T01:40:10.908Z,2.03
2019-03-19T01:42:39.307Z,2.02
2019-03-19T01:45:09.981Z,1.98
2019-03-19T01:47:38.413Z,1.93
2019-03-19T01:50:09.753Z,1.90
2019-03-19T01:52:38.155Z,1.87
2019-03-19T01:55:09.635Z,1.83
2019-03-19T01:57:38.020Z,1.83
2019-03-19T02:00:14.480Z,1.82
2019-03-19T02:02:42.913Z,1.80
2019-03-19T02:05:11.396Z,1.68
2019-03-19T02:07:39.817Z,1.77
2019-03-19T02:10:13.120Z,1.75
2019-03-19T02:12:41.651Z,1.73
2019-03-19T02:15:17.433Z,1.67
2019-03-19T02:17:45.906Z,1.68
2019-03-19T02:20:15.432Z,1.68
2019-03-19T02:22:43.958Z,1.71
2019-03-19T02:25:12.438Z,1.69
2019-03-19T02:27:40.819Z,1.11
2019-03-19T02:30:14.681Z,1.66
2019-03-19T02:32:43.169Z,1.59
2019-03-19T02:35:11.894Z,1.54
2019-03-19T02:37:40.335Z,1.52
2019-03-19T02:40:17.463Z,1.51
2019-03-19T02:42:45.868Z,1.49
2019-03-19T02:45:15.349Z,1.49
2019-03-19T02:47:43.746Z,1.47
2019-03-19T02:50:18.832Z,1.43
2019-03-19T02:52:47.251Z,1.39
2019-03-19T02:55:15.625Z,0.85
2019-03-19T02:57:44.059Z,1.42
2019-03-19T03:00:18.477Z,1.44
2019-03-19T03:02:47.047Z,1.41
2019-03-19T03:05:19.505Z,1.43
2019-03-19T03:07:47.878Z,1.40
2019-03-19T03:10:16.340Z,1.39
2019-03-19T03:12:44.853Z,1.39
2019-03-19T03:15:14.062Z,1.41
2019-03-19T03:17:42.555Z,1.39
2019-03-19T03:20:13.406Z,1.39
2019-03-19T03:22:41.815Z,1.40
2019-03-19T03:25:12.651Z,1.35
2019-03-19T03:27:41.113Z,1.34
2019-03-19T03:30:23.224Z,1.34
2019-03-19T03:32:51.726Z,1.37
2019-03-19T03:35:20.105Z,1.42
2019-03-19T03:37:48.471Z,1.46
2019-03-19T03:40:17.785Z,1.50
2019-03-19T03:42:46.224Z,1.50
2019-03-19T03:45:16.520Z,1.51
2019-03-19T03:47:44.912Z,1.52
2019-03-19T03:50:17.436Z,1.55
2019-03-19T03:52:45.847Z,1.57
2019-03-19T03:55:20.411Z,1.53
2019-03-19T03:57:48.819Z,1.52
2019-03-19T04:00:18.295Z,1.53
2019-03-19T04:02:46.690Z,1.52
2019-03-19T04:05:15.223Z,1.53
2019-03-19T04:07:43.631Z,1.54
2019-03-19T04:10:19.648Z,1.57
2019-03-19T04:12:48.127Z,1.58
2019-03-19T04:15:17.356Z,1.58
2019-03-19T04:17:45.811Z,1.59
2019-03-19T04:20:17.954Z,1.56
2019-03-19T04:22:46.343Z,1.56
2019-03-19T04:25:15.084Z,1.55
2019-03-19T04:27:43.485Z,1.56
2019-03-19T04:30:13.722Z,1.56
2019-03-19T04:32:42.113Z,1.59
2019-03-19T04:35:10.674Z,1.58
2019-03-19T04:37:39.074Z,1.58
2019-03-19T04:40:15.289Z,1.61
2019-03-19T04:42:44.310Z,1.60
2019-03-19T04:45:17.609Z,1.59
2019-03-19T04:47:45.987Z,1.61
2019-03-19T04:50:15.327Z,1.63
2019-03-19T04:52:43.726Z,1.14
2019-03-19T04:55:14.701Z,1.63
2019-03-19T04:57:43.135Z,1.65
2019-03-19T05:00:15.852Z,1.65
2019-03-19T05:02:44.281Z,1.65
2019-03-19T05:05:13.518Z,1.58
2019-03-19T05:07:42.099Z,1.52
2019-03-19T05:10:12.696Z,1.49
2019-03-19T05:12:41.080Z,1.46
2019-03-19T05:15:10.644Z,1.46
2019-03-19T05:17:39.021Z,1.47
2019-03-19T05:20:10.583Z,1.49
2019-03-19T05:22:38.961Z,1.48
2019-03-19T05:25:08.303Z,1.50
2019-03-19T05:27:37.572Z,1.53
2019-03-19T05:30:14.548Z,1.52
2019-03-19T05:32:43.095Z,1.46
2019-03-19T05:35:11.562Z,1.44
2019-03-19T05:37:39.953Z,1.43
2019-03-19T05:40:16.424Z,1.46
2019-03-19T05:42:44.815Z,1.51
2019-03-19T05:45:15.132Z,1.55
2019-03-19T05:47:43.592Z,1.58
2019-03-19T05:50:14.357Z,1.59
2019-03-19T05:52:42.750Z,1.59
2019-03-19T05:55:12.003Z,1.55
2019-03-19T05:57:48.737Z,1.29
2019-03-19T06:00:14.885Z,1.56
2019-03-19T06:02:43.276Z,1.56
2019-03-19T06:05:12.605Z,1.56
2019-03-19T06:07:40.991Z,1.55
2019-03-19T06:10:13.519Z,1.53
2019-03-19T06:12:41.919Z,1.54
2019-03-19T06:15:16.966Z,1.51
2019-03-19T06:17:45.356Z,1.51
2019-03-19T06:20:18.625Z,1.50
2019-03-19T06:22:47.009Z,1.53
2019-03-19T06:25:15.498Z,1.56
2019-03-19T06:27:43.876Z,1.57
2019-03-19T06:30:16.658Z,1.58
2019-03-19T06:32:45.120Z,1.52
2019-03-19T06:35:14.992Z,1.50
2019-03-19T06:37:43.434Z,1.50
2019-03-19T06:40:14.964Z,1.52
2019-03-19T06:42:43.364Z,1.58
2019-03-19T06:45:14.332Z,1.65
2019-03-19T06:47:42.732Z,1.70
2019-03-19T06:50:14.020Z,1.76
2019-03-19T06:52:42.386Z,1.81
2019-03-19T06:55:16.674Z,1.86
2019-03-19T06:57:45.065Z,1.92
2019-03-19T07:00:25.570Z,1.95
2019-03-19T07:02:54.034Z,2.02
2019-03-19T07:05:22.769Z,2.05
2019-03-19T07:07:51.163Z,2.07
2019-03-19T07:10:20.387Z,2.11
2019-03-19T07:12:48.788Z,2.11
2019-03-19T07:15:22.195Z,2.12
2019-03-19T07:17:50.585Z,2.14
2019-03-19T07:20:22.041Z,2.17
2019-03-19T07:22:50.525Z,2.17
2019-03-19T07:25:18.974Z,2.22
2019-03-19T07:27:47.287Z,2.27
2019-03-19T07:30:19.880Z,2.29
2019-03-19T07:32:48.306Z,2.31
2019-03-19T07:35:16.768Z,2.35
2019-03-19T07:37:45.167Z,2.39
2019-03-19T07:40:14.894Z,2.45
2019-03-19T07:42:43.286Z,2.53
2019-03-19T07:45:19.003Z,2.58
2019-03-19T07:47:47.416Z,2.61
2019-03-19T07:50:19.816Z,2.67
2019-03-19T07:52:48.208Z,2.69
2019-03-19T07:55:16.748Z,2.77
2019-03-19T07:57:45.142Z,2.78
2019-03-19T08:00:18.001Z,2.83
2019-03-19T08:02:46.393Z,2.89
2019-03-19T08:05:14.866Z,2.85
2019-03-19T08:07:43.254Z,3.01
2019-03-19T08:10:13.770Z,3.05
2019-03-19T08:12:42.233Z,3.07
2019-03-19T08:15:16.724Z,3.12
2019-03-19T08:17:45.190Z,3.22
2019-03-19T08:20:15.432Z,3.29
2019-03-19T08:22:43.906Z,3.36
2019-03-19T08:25:13.433Z,3.42
2019-03-19T08:27:41.825Z,3.42
2019-03-19T08:30:25.072Z,3.47
2019-03-19T08:32:53.545Z,3.57
2019-03-19T08:35:22.000Z,3.59
2019-03-19T08:37:50.400Z,3.63
2019-03-19T08:40:19.331Z,3.68
2019-03-19T08:42:47.730Z,3.76
2019-03-19T08:45:23.724Z,3.79
2019-03-19T08:47:52.223Z,3.88
2019-03-19T08:50:24.250Z,3.97
2019-03-19T08:52:54.998Z,4.04
2019-03-19T08:55:22.756Z,4.14
2019-03-19T08:57:51.143Z,4.24
2019-03-19T09:00:29.680Z,4.30
2019-03-19T09:02:58.073Z,4.43
2019-03-19T09:05:26.466Z,4.46
2019-03-19T09:07:54.956Z,4.47
2019-03-19T09:10:23.379Z,4.49
2019-03-19T09:12:51.766Z,4.52
2019-03-19T09:15:22.378Z,4.58
2019-03-19T09:17:50.830Z,4.65
2019-03-19T09:20:19.390Z,4.71
2019-03-19T09:22:47.767Z,4.80
2019-03-19T09:25:16.176Z,4.86
2019-03-19T09:27:44.602Z,4.97
2019-03-19T09:30:17.836Z,5.03
2019-03-19T09:32:46.278Z,5.12
2019-03-19T09:35:14.762Z,5.21
2019-03-19T09:37:46.330Z,5.32
2019-03-19T09:40:15.184Z,5.24
2019-03-19T09:42:43.580Z,5.37
2019-03-19T09:45:13.487Z,5.41
2019-03-19T09:47:41.866Z,5.41
2019-03-19T09:50:21.383Z,5.54
2019-03-19T09:52:49.767Z,5.65
2019-03-19T09:55:18.264Z,5.65
2019-03-19T09:57:46.679Z,5.69
2019-03-19T10:00:21.754Z,5.71
2019-03-19T10:02:50.221Z,5.63
2019-03-19T10:05:18.677Z,5.72
2019-03-19T10:07:47.058Z,5.70
2019-03-19T10:10:23.163Z,5.68
2019-03-19T10:12:51.624Z,5.63
2019-03-19T10:15:20.195Z,5.46
2019-03-19T10:17:48.573Z,5.59
2019-03-19T10:20:21.506Z,5.33
2019-03-19T10:22:49.891Z,5.44
2019-03-19T10:25:18.379Z,5.37
2019-03-19T10:27:46.750Z,5.41
2019-03-19T10:30:22.177Z,5.30
2019-03-19T10:32:50.578Z,5.36
2019-03-19T10:35:18.970Z,5.49
2019-03-19T10:37:47.518Z,5.55
2019-03-19T10:40:18.597Z,5.59
2019-03-19T10:42:47.037Z,5.62
2019-03-19T10:45:19.936Z,5.61
2019-03-19T10:47:48.389Z,5.74
2019-03-19T10:50:22.145Z,5.93
2019-03-19T10:52:50.816Z,6.07
2019-03-19T10:55:19.278Z,6.17
2019-03-19T10:57:47.654Z,6.42
2019-03-19T11:00:18.535Z,6.55
2019-03-19T11:02:46.930Z,6.57
2019-03-19T11:05:15.764Z,6.66
2019-03-19T11:07:44.148Z,6.64
2019-03-19T11:10:15.184Z,6.61
2019-03-19T11:12:43.834Z,6.56
2019-03-19T11:15:19.057Z,6.63
2019-03-19T11:17:47.577Z,6.57
2019-03-19T11:20:17.522Z,6.48
2019-03-19T11:22:46.238Z,6.44
2019-03-19T11:25:16.464Z,6.34
2019-03-19T11:27:44.911Z,6.33
2019-03-19T11:30:22.420Z,6.43
2019-03-19T11:32:50.872Z,6.48
2019-03-19T11:35:19.620Z,6.49
2019-03-19T11:37:47.977Z,6.60
2019-03-19T11:40:17.693Z,6.68
2019-03-19T11:42:46.143Z,6.65
2019-03-19T11:45:16.685Z,6.73
2019-03-19T11:47:45.227Z,6.70
2019-03-19T11:50:16.083Z,6.70
2019-03-19T11:52:44.476Z,6.75
2019-03-19T11:55:14.414Z,6.56
2019-03-19T11:57:42.791Z,6.58
2019-03-19T12:00:30.306Z,6.60
2019-03-19T12:02:58.869Z,6.69
2019-03-19T12:05:27.280Z,6.78
2019-03-19T12:07:55.677Z,6.66
2019-03-19T12:10:24.153Z,6.69
2019-03-19T12:12:52.518Z,6.64
2019-03-19T12:15:20.986Z,6.61
2019-03-19T12:17:49.375Z,6.64
2019-03-19T12:20:17.758Z,6.62
2019-03-19T12:22:46.165Z,6.49
2019-03-19T12:25:14.625Z,6.44
2019-03-19T12:27:43.096Z,6.50
2019-03-19T12:30:22.646Z,6.44
2019-03-19T12:32:49.938Z,6.45
2019-03-19T12:35:19.058Z,6.56
2019-03-19T12:37:47.445Z,6.65
2019-03-19T12:40:20.870Z,6.69
2019-03-19T12:42:49.382Z,6.83
2019-03-19T12:45:22.627Z,6.96
2019-03-19T12:47:51.188Z,6.98
2019-03-19T12:50:26.496Z,6.83
2019-03-19T12:52:54.944Z,6.87
2019-03-19T12:55:23.467Z,6.84
2019-03-19T12:57:52.055Z,6.88
2019-03-19T13:00:32.958Z,6.86
2019-03-19T13:02:53.240Z,6.83
2019-03-19T13:07:10.799Z,6.80
2019-03-19T13:07:51.743Z,6.86
2019-03-19T13:10:24.780Z,6.93
2019-03-19T13:12:53.197Z,6.98
2019-03-19T13:15:22.455Z,6.93
2019-03-19T13:17:50.936Z,6.83
2019-03-19T13:20:23.210Z,6.87
2019-03-19T13:22:51.833Z,6.90
2019-03-19T13:25:26.649Z,6.95
2019-03-19T13:27:55.049Z,7.02
2019-03-19T13:30:24.915Z,6.98
2019-03-19T13:32:53.514Z,7.12
2019-03-19T13:35:21.948Z,7.21
2019-03-19T13:37:50.322Z,7.22
2019-03-19T13:40:19.456Z,7.22
2019-03-19T13:42:47.905Z,7.33
2019-03-19T13:45:21.442Z,7.31
2019-03-19T13:47:49.904Z,7.40
2019-03-19T13:50:20.382Z,7.49
2019-03-19T13:52:48.759Z,7.54
2019-03-19T13:55:22.095Z,7.58
2019-03-19T13:57:50.472Z,7.66
2019-03-19T14:00:19.597Z,7.70
2019-03-19T14:02:48.041Z,7.65
2019-03-19T14:05:17.072Z,7.61
2019-03-19T14:07:45.451Z,7.59
2019-03-19T14:10:17.531Z,7.49
2019-03-19T14:12:45.926Z,7.45
2019-03-19T14:15:19.099Z,7.39
2019-03-19T14:17:47.495Z,7.25
2019-03-19T14:20:18.595Z,7.29
2019-03-19T14:22:47.045Z,7.28
2019-03-19T14:25:16.259Z,7.32
2019-03-19T14:27:44.882Z,7.06
2019-03-19T14:30:18.408Z,7.31
2019-03-19T14:32:46.926Z,7.32
2019-03-19T14:35:15.443Z,7.39
2019-03-19T14:37:44.121Z,7.40
2019-03-19T14:40:20.176Z,7.46
2019-03-19T14:42:48.664Z,7.50
2019-03-19T14:45:17.677Z,7.55
2019-03-19T14:47:46.122Z,7.53
2019-03-19T14:50:19.610Z,7.52
2019-03-19T14:52:47.990Z,7.56
2019-03-19T14:55:16.442Z,7.35
2019-03-19T14:57:44.833Z,7.25
2019-03-19T15:00:18.946Z,7.23
2019-03-19T15:02:47.392Z,7.23
2019-03-19T15:05:16.310Z,7.28
2019-03-19T15:07:44.763Z,7.35
2019-03-19T15:10:17.832Z,7.35
2019-03-19T15:12:46.220Z,7.34
2019-03-19T15:15:18.429Z,7.25
2019-03-19T15:17:46.888Z,7.13
2019-03-19T15:20:28.055Z,7.06
2019-03-19T15:22:56.447Z,7.03
2019-03-19T15:25:24.831Z,6.97
2019-03-19T15:27:53.380Z,6.96
2019-03-19T15:30:21.829Z,6.92
2019-03-19T15:32:50.221Z,6.91
2019-03-19T15:35:18.612Z,6.93
2019-03-19T15:37:46.981Z,7.00
2019-03-19T15:40:19.211Z,7.05
2019-03-19T15:42:47.737Z,7.04
2019-03-19T15:45:17.860Z,7.05
2019-03-19T15:47:46.238Z,7.10
2019-03-19T15:50:16.441Z,7.13
2019-03-19T15:52:44.885Z,7.17
2019-03-19T15:55:14.407Z,7.17
2019-03-19T15:57:42.884Z,7.18
2019-03-19T16:00:15.809Z,7.17
2019-03-19T16:02:44.259Z,7.16
2019-03-19T16:05:13.679Z,7.19
2019-03-19T16:07:43.160Z,7.20
2019-03-19T16:10:13.646Z,7.20
2019-03-19T16:12:42.171Z,7.21
2019-03-19T16:15:15.215Z,7.21
2019-03-19T16:17:43.681Z,7.17
2019-03-19T16:20:16.759Z,7.14
2019-03-19T16:22:45.142Z,7.06
2019-03-19T16:25:14.086Z,6.96
2019-03-19T16:27:42.472Z,6.91
2019-03-19T16:30:17.518Z,6.88
2019-03-19T16:32:45.976Z,6.86
2019-03-19T16:35:14.941Z,6.81
2019-03-19T16:37:43.668Z,6.79
2019-03-19T16:40:15.232Z,6.79
2019-03-19T16:42:43.620Z,6.79
2019-03-19T16:45:12.180Z,6.79
2019-03-19T16:47:40.601Z,6.79
2019-03-19T16:50:12.075Z,6.76
2019-03-19T16:52:40.633Z,6.72
2019-03-19T16:55:11.579Z,6.70
2019-03-19T16:57:39.967Z,6.68
2019-03-19T17:00:13.906Z,6.67
2019-03-19T17:02:42.301Z,6.64
2019-03-19T17:05:12.644Z,6.61
2019-03-19T17:07:41.148Z,6.59
2019-03-19T17:10:12.321Z,6.58
2019-03-19T17:12:42.001Z,6.57
2019-03-19T17:15:13.020Z,6.52
2019-03-19T17:17:41.496Z,6.51
2019-03-19T17:20:12.778Z,6.48
2019-03-19T17:22:41.251Z,6.46
2019-03-19T17:25:27.302Z,6.43
2019-03-19T17:27:55.938Z,6.40
2019-03-19T17:30:28.902Z,6.42
2019-03-19T17:32:57.289Z,6.38
2019-03-19T17:35:25.670Z,6.33
2019-03-19T17:37:54.170Z,6.29
2019-03-19T17:40:22.652Z,6.27
2019-03-19T17:42:51.030Z,6.25
2019-03-19T17:45:19.418Z,6.24
2019-03-19T17:47:47.974Z,6.22
2019-03-19T17:50:33.694Z,6.20
2019-03-19T17:53:02.091Z,6.16
2019-03-19T17:55:30.490Z,6.14
2019-03-19T17:57:58.871Z,6.12
2019-03-19T18:00:31.876Z,6.12
2019-03-19T18:03:00.271Z,6.10
2019-03-19T18:05:28.667Z,6.10
2019-03-19T18:07:57.293Z,6.10
2019-03-19T18:10:25.682Z,6.07
2019-03-19T18:12:54.081Z,6.05
2019-03-19T18:15:22.461Z,6.03
2019-03-19T18:17:50.882Z,6.02
2019-03-19T18:20:19.255Z,5.98
2019-03-19T18:22:47.630Z,5.96
2019-03-19T18:25:17.086Z,5.94
2019-03-19T18:27:45.453Z,5.94
2019-03-19T18:30:21.496Z,5.91
2019-03-19T18:32:49.893Z,5.89
2019-03-19T18:35:18.254Z,5.83
2019-03-19T18:37:46.655Z,5.79
2019-03-19T18:40:17.131Z,5.74
2019-03-19T18:42:45.661Z,5.70
2019-03-19T18:45:16.068Z,5.66
2019-03-19T18:47:44.466Z,5.63
2019-03-19T18:50:14.865Z,5.60
2019-03-19T18:52:43.324Z,5.57
2019-03-19T18:55:11.893Z,5.55
2019-03-19T18:57:41.544Z,5.43
2019-03-19T19:00:13.127Z,5.48
2019-03-19T19:02:49.645Z,5.46
2019-03-19T19:05:16.457Z,5.45
2019-03-19T19:07:44.828Z,5.45
2019-03-19T19:10:15.250Z,5.47
2019-03-19T19:12:43.677Z,5.47
2019-03-19T19:15:23.239Z,5.46
2019-03-19T19:17:51.615Z,5.45
2019-03-19T19:20:20.246Z,5.47
2019-03-19T19:22:48.641Z,5.47
2019-03-19T19:25:25.403Z,5.47
2019-03-19T19:27:53.788Z,5.45
2019-03-19T19:30:24.279Z,5.44
2019-03-19T19:33:00.934Z,5.42
2019-03-19T19:35:22.799Z,5.40
2019-03-19T19:37:51.191Z,5.39
2019-03-19T19:40:19.570Z,5.40
2019-03-19T19:42:48.964Z,5.39
2019-03-19T19:45:18.609Z,5.37
2019-03-19T19:47:46.987Z,5.37
2019-03-19T19:50:22.990Z,5.36
2019-03-19T19:52:51.467Z,5.36
2019-03-19T19:55:19.858Z,5.35
2019-03-19T19:57:48.266Z,5.32
2019-03-19T20:00:20.596Z,5.30
2019-03-19T20:02:49.272Z,5.28
2019-03-19T20:05:18.209Z,5.27
2019-03-19T20:07:46.670Z,5.25
2019-03-19T20:10:27.372Z,5.22
2019-03-19T20:12:55.755Z,5.19
2019-03-19T20:15:25.067Z,5.18
2019-03-19T20:17:53.454Z,5.17
2019-03-19T20:20:23.166Z,5.14
2019-03-19T20:22:51.568Z,5.12
2019-03-19T20:25:19.947Z,5.10
2019-03-19T20:27:48.336Z,5.08
2019-03-19T20:30:20.898Z,5.08
2019-03-19T20:32:49.293Z,5.07
2019-03-19T20:35:17.687Z,5.06
2019-03-19T20:37:46.063Z,5.05
2019-03-19T20:40:15.302Z,5.03
2019-03-19T20:42:44.616Z,5.01
2019-03-19T20:45:14.235Z,5.00
2019-03-19T20:47:42.624Z,4.96
2019-03-19T20:50:22.599Z,4.95
2019-03-19T20:52:50.993Z,4.93
2019-03-19T20:55:19.383Z,4.87
2019-03-19T20:57:47.765Z,4.85
2019-03-19T21:00:19.618Z,4.83
2019-03-19T21:02:48.004Z,4.83
2019-03-19T21:05:16.383Z,4.82
2019-03-19T21:07:44.780Z,4.80
2019-03-19T21:10:19.119Z,4.78
2019-03-19T21:12:47.651Z,4.78
2019-03-19T21:15:18.333Z,4.80
2019-03-19T21:17:47.654Z,4.81
2019-03-19T21:20:16.050Z,4.78
2019-03-19T21:22:45.264Z,4.73
2019-03-19T21:25:13.826Z,4.66
2019-03-19T21:27:42.279Z,4.62
2019-03-19T21:30:18.092Z,4.58
2019-03-19T21:32:46.623Z,4.56
2019-03-19T21:35:16.565Z,4.49
2019-03-19T21:37:44.941Z,4.44
2019-03-19T21:40:14.701Z,4.38
2019-03-19T21:42:43.074Z,4.33
2019-03-19T21:45:13.370Z,4.28
2019-03-19T21:47:41.747Z,4.22
2019-03-19T21:50:12.671Z,4.18
2019-03-19T21:52:41.057Z,4.13
2019-03-19T21:55:10.772Z,4.12
2019-03-19T21:57:39.175Z,4.10
2019-03-19T22:00:23.654Z,4.03
2019-03-19T22:02:52.038Z,4.00
2019-03-19T22:05:20.491Z,3.95
2019-03-19T22:07:48.871Z,3.91
2019-03-19T22:10:22.009Z,3.86
2019-03-19T22:12:50.389Z,3.83
2019-03-19T22:15:21.049Z,3.80
2019-03-19T22:17:49.426Z,3.76
2019-03-19T22:20:17.984Z,3.71
2019-03-19T22:22:46.363Z,3.63
2019-03-19T22:25:15.500Z,3.55
2019-03-19T22:27:44.008Z,3.50
2019-03-19T22:30:19.963Z,3.45
2019-03-19T22:32:48.343Z,3.39
2019-03-19T22:35:16.795Z,3.32
2019-03-19T22:37:45.255Z,3.29
2019-03-19T22:40:16.028Z,3.25
2019-03-19T22:42:44.546Z,3.19
2019-03-19T22:45:15.337Z,3.16
2019-03-19T22:47:43.701Z,3.15
2019-03-19T22:50:14.499Z,3.13
2019-03-19T22:52:42.941Z,3.12
2019-03-19T22:55:12.769Z,3.13
2019-03-19T22:57:41.150Z,3.15
2019-03-19T23:00:19.283Z,3.11
2019-03-19T23:02:47.714Z,3.08
2019-03-19T23:05:16.259Z,3.03
2019-03-19T23:07:44.641Z,2.99
2019-03-19T23:10:13.029Z,2.90
2019-03-19T23:12:41.654Z,2.87
2019-03-19T23:15:11.492Z,2.83
2019-03-19T23:17:40.106Z,2.80
2019-03-19T23:20:13.503Z,2.79
2019-03-19T23:22:42.022Z,2.76
2019-03-19T23:25:10.988Z,2.71
2019-03-19T23:27:39.388Z,2.68
2019-03-19T23:30:18.933Z,2.66
2019-03-19T23:32:47.380Z,2.67
2019-03-19T23:35:15.767Z,2.68
2019-03-19T23:37:44.149Z,2.69
2019-03-19T23:40:14.938Z,2.68
2019-03-19T23:42:43.339Z,2.64
2019-03-19T23:45:12.768Z,2.64
2019-03-19T23:47:41.292Z,2.62
2019-03-19T23:50:14.886Z,2.61
2019-03-19T23:52:43.345Z,2.59
2019-03-19T23:55:12.023Z,2.58
2019-03-19T23:57:40.414Z,2.55
